sensor_id;sensor_type;location;lat;lon;timestamp;pressure;altitude;pressure_sealevel;temperature;humidity
72548;BME280;60570;50.848;6.776;2023-05-25T00:00:55;101344.25;;;15.70;54.37
72548;BME280;60570;50.848;6.776;2023-05-25T00:01:56;101345.91;;;15.71;54.07
72548;BME280;60570;50.848;6.776;2023-05-25T00:02:58;101341.47;;;15.70;54.49
72548;BME280;60570;50.848;6.776;2023-05-25T00:04:02;101347.06;;;15.70;54.03
72548;BME280;60570;50.848;6.776;2023-05-25T00:05:04;101348.72;;;15.71;54.18
72548;BME280;60570;50.848;6.776;2023-05-25T00:06:06;101345.09;;;15.71;54.28
72548;BME280;60570;50.848;6.776;2023-05-25T00:07:07;101340.66;;;15.70;54.30
72548;BME280;60570;50.848;6.776;2023-05-25T00:08:09;101338.19;;;15.68;54.39
72548;BME280;60570;50.848;6.776;2023-05-25T00:09:10;101341.34;;;15.67;54.43
72548;BME280;60570;50.848;6.776;2023-05-25T00:10:12;101342.53;;;15.66;54.24
72548;BME280;60570;50.848;6.776;2023-05-25T00:11:13;101353.72;;;15.66;54.30
72548;BME280;60570;50.848;6.776;2023-05-25T00:12:18;101347.31;;;15.65;54.39
72548;BME280;60570;50.848;6.776;2023-05-25T00:13:19;101355.72;;;15.65;54.54
72548;BME280;60570;50.848;6.776;2023-05-25T00:14:21;101357.69;;;15.65;54.44
72548;BME280;60570;50.848;6.776;2023-05-25T00:15:22;101354.06;;;15.64;54.38
72548;BME280;60570;50.848;6.776;2023-05-25T00:16:25;101359.66;;;15.64;54.42
72548;BME280;60570;50.848;6.776;2023-05-25T00:17:25;101358.03;;;15.63;54.51
72548;BME280;60570;50.848;6.776;2023-05-25T00:18:31;101369.25;;;15.63;54.42
72548;BME280;60570;50.848;6.776;2023-05-25T00:19:32;101351.97;;;15.61;54.53
72548;BME280;60570;50.848;6.776;2023-05-25T00:20:34;101354.75;;;15.61;54.46
72548;BME280;60570;50.848;6.776;2023-05-25T00:21:34;101353.47;;;15.59;54.35
72548;BME280;60570;50.848;6.776;2023-05-25T00:22:37;101350.66;;;15.59;54.58
72548;BME280;60570;50.848;6.776;2023-05-25T00:23:39;101351.03;;;15.57;54.52
72548;BME280;60570;50.848;6.776;2023-05-25T00:24:41;101350.66;;;15.59;54.47
72548;BME280;60570;50.848;6.776;2023-05-25T00:25:42;101351.84;;;15.58;54.52
72548;BME280;60570;50.848;6.776;2023-05-25T00:26:43;101357.81;;;15.56;54.40
72548;BME280;60570;50.848;6.776;2023-05-25T00:27:45;101356.63;;;15.57;54.68
72548;BME280;60570;50.848;6.776;2023-05-25T00:28:45;101350.19;;;15.57;54.61
72548;BME280;60570;50.848;6.776;2023-05-25T00:29:47;101352.53;;;15.55;54.55
72548;BME280;60570;50.848;6.776;2023-05-25T00:30:48;101350.56;;;15.55;54.63
72548;BME280;60570;50.848;6.776;2023-05-25T00:31:49;101351.75;;;15.54;54.60
72548;BME280;60570;50.848;6.776;2023-05-25T00:32:50;101352.88;;;15.53;54.58
72548;BME280;60570;50.848;6.776;2023-05-25T00:33:53;101348.47;;;15.52;54.68
72548;BME280;60570;50.848;6.776;2023-05-25T00:34:54;101345.66;;;15.52;54.71
72548;BME280;60570;50.848;6.776;2023-05-25T00:35:55;101348.00;;;15.50;54.63
72548;BME280;60570;50.848;6.776;2023-05-25T00:36:56;101340.38;;;15.51;54.53
72548;BME280;60570;50.848;6.776;2023-05-25T00:37:58;101341.22;;;15.51;54.69
72548;BME280;60570;50.848;6.776;2023-05-25T00:39:00;101345.19;;;15.50;54.70
72548;BME280;60570;50.848;6.776;2023-05-25T00:40:02;101348.31;;;15.49;54.68
72548;BME280;60570;50.848;6.776;2023-05-25T00:41:03;101343.91;;;15.48;54.87
72548;BME280;60570;50.848;6.776;2023-05-25T00:42:06;101341.09;;;15.48;54.61
72548;BME280;60570;50.848;6.776;2023-05-25T00:43:07;101343.91;;;15.48;54.82
72548;BME280;60570;50.848;6.776;2023-05-25T00:44:09;101345.03;;;15.47;54.98
72548;BME280;60570;50.848;6.776;2023-05-25T00:45:10;101336.22;;;15.45;54.78
72548;BME280;60570;50.848;6.776;2023-05-25T00:46:13;101346.59;;;15.44;54.74
72548;BME280;60570;50.848;6.776;2023-05-25T00:47:15;101342.97;;;15.44;54.85
72548;BME280;60570;50.848;6.776;2023-05-25T00:48:17;101339.34;;;15.43;54.91
72548;BME280;60570;50.848;6.776;2023-05-25T00:49:19;101342.13;;;15.43;54.83
72548;BME280;60570;50.848;6.776;2023-05-25T00:50:32;101341.63;;;15.41;54.85
72548;BME280;60570;50.848;6.776;2023-05-25T00:51:35;101342.50;;;15.42;54.64
72548;BME280;60570;50.848;6.776;2023-05-25T00:52:37;101342.50;;;15.42;54.73
72548;BME280;60570;50.848;6.776;2023-05-25T00:53:38;101338.03;;;15.41;54.75
72548;BME280;60570;50.848;6.776;2023-05-25T00:54:42;101347.22;;;15.41;54.94
72548;BME280;60570;50.848;6.776;2023-05-25T00:55:48;101340.38;;;15.39;54.75
72548;BME280;60570;50.848;6.776;2023-05-25T00:56:52;101341.50;;;15.38;54.95
72548;BME280;60570;50.848;6.776;2023-05-25T00:57:56;101336.75;;;15.38;55.13
72548;BME280;60570;50.848;6.776;2023-05-25T00:59:03;101340.69;;;15.37;54.92
72548;BME280;60570;50.848;6.776;2023-05-25T01:00:07;101346.28;;;15.37;55.00
72548;BME280;60570;50.848;6.776;2023-05-25T01:01:12;101346.63;;;15.36;55.27
72548;BME280;60570;50.848;6.776;2023-05-25T01:02:15;101348.28;;;15.37;54.86
72548;BME280;60570;50.848;6.776;2023-05-25T01:03:19;101343.84;;;15.36;54.94
72548;BME280;60570;50.848;6.776;2023-05-25T01:04:22;101341.88;;;15.36;54.86
72548;BME280;60570;50.848;6.776;2023-05-25T01:05:24;101343.84;;;15.36;55.06
72548;BME280;60570;50.848;6.776;2023-05-25T01:06:31;101340.22;;;15.35;54.98
72548;BME280;60570;50.848;6.776;2023-05-25T01:07:35;101337.41;;;15.35;54.99
72548;BME280;60570;50.848;6.776;2023-05-25T01:08:37;101338.25;;;15.36;54.95
72548;BME280;60570;50.848;6.776;2023-05-25T01:09:43;101339.75;;;15.33;54.77
72548;BME280;60570;50.848;6.776;2023-05-25T01:10:44;101336.94;;;15.33;54.93
72548;BME280;60570;50.848;6.776;2023-05-25T01:11:50;101339.75;;;15.33;54.91
72548;BME280;60570;50.848;6.776;2023-05-25T01:12:52;101337.31;;;15.32;54.95
72548;BME280;60570;50.848;6.776;2023-05-25T01:13:55;101342.06;;;15.31;54.97
72548;BME280;60570;50.848;6.776;2023-05-25T01:14:58;101338.47;;;15.31;55.00
72548;BME280;60570;50.848;6.776;2023-05-25T01:16:02;101334.50;;;15.32;55.01
72548;BME280;60570;50.848;6.776;2023-05-25T01:17:04;101334.84;;;15.30;55.11
72548;BME280;60570;50.848;6.776;2023-05-25T01:18:06;101335.22;;;15.28;55.08
72548;BME280;60570;50.848;6.776;2023-05-25T01:19:08;101342.78;;;15.28;54.94
72548;BME280;60570;50.848;6.776;2023-05-25T01:20:10;101347.56;;;15.27;55.24
72548;BME280;60570;50.848;6.776;2023-05-25T01:21:17;101345.94;;;15.26;55.18
72548;BME280;60570;50.848;6.776;2023-05-25T01:22:26;101345.94;;;15.26;54.92
72548;BME280;60570;50.848;6.776;2023-05-25T01:23:32;101347.06;;;15.25;55.06
72548;BME280;60570;50.848;6.776;2023-05-25T01:24:38;101345.47;;;15.24;55.09
72548;BME280;60570;50.848;6.776;2023-05-25T01:25:44;101359.47;;;15.24;55.00
72548;BME280;60570;50.848;6.776;2023-05-25T01:26:54;101359.47;;;15.24;55.12
72548;BME280;60570;50.848;6.776;2023-05-25T01:27:58;101353.84;;;15.24;55.20
72548;BME280;60570;50.848;6.776;2023-05-25T01:29:02;101351.06;;;15.24;55.26
72548;BME280;60570;50.848;6.776;2023-05-25T01:30:07;101347.06;;;15.25;54.80
72548;BME280;60570;50.848;6.776;2023-05-25T01:31:10;101354.69;;;15.25;55.05
72548;BME280;60570;50.848;6.776;2023-05-25T01:32:14;101341.16;;;15.27;55.25
72548;BME280;60570;50.848;6.776;2023-05-25T01:33:18;101345.94;;;15.26;55.00
72548;BME280;60570;50.848;6.776;2023-05-25T01:34:20;101342.66;;;15.24;54.86
72548;BME280;60570;50.848;6.776;2023-05-25T01:35:23;101348.25;;;15.24;54.87
72548;BME280;60570;50.848;6.776;2023-05-25T01:36:26;101345.81;;;15.23;55.00
72548;BME280;60570;50.848;6.776;2023-05-25T01:37:27;101350.22;;;15.24;55.08
72548;BME280;60570;50.848;6.776;2023-05-25T01:38:28;101347.31;;;15.20;55.24
72548;BME280;60570;50.848;6.776;2023-05-25T01:39:30;101334.47;;;15.19;55.37
72548;BME280;60570;50.848;6.776;2023-05-25T01:40:30;101342.88;;;15.19;55.30
72548;BME280;60570;50.848;6.776;2023-05-25T01:41:32;101348.47;;;15.19;55.04
72548;BME280;60570;50.848;6.776;2023-05-25T01:42:33;101348.47;;;15.19;54.97
72548;BME280;60570;50.848;6.776;2023-05-25T01:43:34;101347.19;;;15.17;55.00
72548;BME280;60570;50.848;6.776;2023-05-25T01:44:35;101345.53;;;15.16;55.27
72548;BME280;60570;50.848;6.776;2023-05-25T01:45:37;101339.47;;;15.14;55.35
72548;BME280;60570;50.848;6.776;2023-05-25T01:46:39;101351.50;;;15.14;55.42
72548;BME280;60570;50.848;6.776;2023-05-25T01:47:45;101344.28;;;15.13;55.39
72548;BME280;60570;50.848;6.776;2023-05-25T01:48:53;101347.88;;;15.14;55.32
72548;BME280;60570;50.848;6.776;2023-05-25T01:50:04;101350.19;;;15.12;55.23
72548;BME280;60570;50.848;6.776;2023-05-25T01:51:12;101346.59;;;15.11;55.23
72548;BME280;60570;50.848;6.776;2023-05-25T01:52:21;101342.50;;;15.09;55.28
72548;BME280;60570;50.848;6.776;2023-05-25T01:53:27;101346.44;;;15.08;55.58
72548;BME280;60570;50.848;6.776;2023-05-25T01:54:34;101344.00;;;15.06;55.39
72548;BME280;60570;50.848;6.776;2023-05-25T01:55:42;101347.28;;;15.08;55.17
72548;BME280;60570;50.848;6.776;2023-05-25T01:56:48;101342.50;;;15.09;55.06
72548;BME280;60570;50.848;6.776;2023-05-25T01:57:49;101342.84;;;15.07;55.28
72548;BME280;60570;50.848;6.776;2023-05-25T01:58:57;101355.66;;;15.08;55.43
72548;BME280;60570;50.848;6.776;2023-05-25T01:59:59;101356.50;;;15.09;55.10
72548;BME280;60570;50.848;6.776;2023-05-25T02:01:04;101352.03;;;15.08;55.35
72548;BME280;60570;50.848;6.776;2023-05-25T02:02:06;101351.56;;;15.06;55.37
72548;BME280;60570;50.848;6.776;2023-05-25T02:03:08;101345.19;;;15.05;55.19
72548;BME280;60570;50.848;6.776;2023-05-25T02:04:10;101353.56;;;15.05;55.55
72548;BME280;60570;50.848;6.776;2023-05-25T02:05:12;101356.38;;;15.05;55.30
72548;BME280;60570;50.848;6.776;2023-05-25T02:06:14;101353.91;;;15.04;55.38
72548;BME280;60570;50.848;6.776;2023-05-25T02:07:16;101354.25;;;15.02;55.41
72548;BME280;60570;50.848;6.776;2023-05-25T02:08:18;101351.81;;;15.01;55.47
72548;BME280;60570;50.848;6.776;2023-05-25T02:09:20;101352.97;;;15.00;55.40
72548;BME280;60570;50.848;6.776;2023-05-25T02:10:21;101350.19;;;15.00;55.50
72548;BME280;60570;50.848;6.776;2023-05-25T02:11:23;101340.13;;;14.99;55.38
72548;BME280;60570;50.848;6.776;2023-05-25T02:12:25;101348.88;;;14.97;55.40
72548;BME280;60570;50.848;6.776;2023-05-25T02:13:26;101351.31;;;14.99;55.42
72548;BME280;60570;50.848;6.776;2023-05-25T02:14:27;101344.91;;;14.98;55.64
72548;BME280;60570;50.848;6.776;2023-05-25T02:15:30;101351.69;;;14.97;55.56
72548;BME280;60570;50.848;6.776;2023-05-25T02:16:31;101351.69;;;14.97;55.56
72548;BME280;60570;50.848;6.776;2023-05-25T02:17:32;101351.69;;;14.97;55.21
72548;BME280;60570;50.848;6.776;2023-05-25T02:18:36;101350.03;;;14.96;55.46
72548;BME280;60570;50.848;6.776;2023-05-25T02:19:38;101343.94;;;14.94;55.71
72548;BME280;60570;50.848;6.776;2023-05-25T02:20:38;101345.13;;;14.93;55.61
72548;BME280;60570;50.848;6.776;2023-05-25T02:21:40;101342.34;;;14.93;55.72
72548;BME280;60570;50.848;6.776;2023-05-25T02:22:40;101348.75;;;14.94;55.50
72548;BME280;60570;50.848;6.776;2023-05-25T02:23:43;101343.16;;;14.94;55.50
72548;BME280;60570;50.848;6.776;2023-05-25T02:24:44;101342.69;;;14.92;55.52
72548;BME280;60570;50.848;6.776;2023-05-25T02:25:47;101336.75;;;14.93;55.50
72548;BME280;60570;50.848;6.776;2023-05-25T02:26:47;101337.88;;;14.92;55.51
72548;BME280;60570;50.848;6.776;2023-05-25T02:27:49;101344.66;;;14.91;55.42
72548;BME280;60570;50.848;6.776;2023-05-25T02:28:50;101342.69;;;14.92;55.39
72548;BME280;60570;50.848;6.776;2023-05-25T02:29:52;101339.06;;;14.91;55.43
72548;BME280;60570;50.848;6.776;2023-05-25T02:30:53;101343.81;;;14.91;55.44
72548;BME280;60570;50.848;6.776;2023-05-25T02:31:54;101338.94;;;14.88;55.46
72548;BME280;60570;50.848;6.776;2023-05-25T02:32:55;101340.91;;;14.87;55.58
72548;BME280;60570;50.848;6.776;2023-05-25T02:33:57;101340.09;;;14.87;55.49
72548;BME280;60570;50.848;6.776;2023-05-25T02:34:58;101335.31;;;14.87;55.61
72548;BME280;60570;50.848;6.776;2023-05-25T02:35:59;101335.78;;;14.89;55.40
72548;BME280;60570;50.848;6.776;2023-05-25T02:37:00;101334.50;;;14.87;55.61
72548;BME280;60570;50.848;6.776;2023-05-25T02:38:02;101331.56;;;14.83;55.63
72548;BME280;60570;50.848;6.776;2023-05-25T02:39:04;101335.19;;;14.84;55.77
72548;BME280;60570;50.848;6.776;2023-05-25T02:40:06;101332.75;;;14.82;55.64
72548;BME280;60570;50.848;6.776;2023-05-25T02:41:08;101335.19;;;14.84;55.65
72548;BME280;60570;50.848;6.776;2023-05-25T02:42:10;101336.34;;;14.83;55.64
72548;BME280;60570;50.848;6.776;2023-05-25T02:43:11;101331.56;;;14.83;55.67
72548;BME280;60570;50.848;6.776;2023-05-25T02:44:12;101341.13;;;14.82;55.65
72548;BME280;60570;50.848;6.776;2023-05-25T02:45:13;101337.16;;;14.83;55.27
72548;BME280;60570;50.848;6.776;2023-05-25T02:46:15;101341.94;;;14.83;55.63
72548;BME280;60570;50.848;6.776;2023-05-25T02:47:16;101342.75;;;14.83;55.57
72548;BME280;60570;50.848;6.776;2023-05-25T02:48:18;101340.78;;;14.84;55.40
72548;BME280;60570;50.848;6.776;2023-05-25T02:49:18;101338.81;;;14.84;55.53
72548;BME280;60570;50.848;6.776;2023-05-25T02:50:20;101337.63;;;14.85;55.42
72548;BME280;60570;50.848;6.776;2023-05-25T02:51:21;101341.25;;;14.86;55.35
72548;BME280;60570;50.848;6.776;2023-05-25T02:52:22;101343.22;;;14.85;55.20
72548;BME280;60570;50.848;6.776;2023-05-25T02:53:25;101342.75;;;14.83;55.53
72548;BME280;60570;50.848;6.776;2023-05-25T02:54:27;101347.19;;;14.84;55.23
72548;BME280;60570;50.848;6.776;2023-05-25T02:55:28;101344.72;;;14.83;55.39
72548;BME280;60570;50.848;6.776;2023-05-25T02:56:30;101341.94;;;14.83;55.45
72548;BME280;60570;50.848;6.776;2023-05-25T02:57:30;101349.53;;;14.82;55.59
72548;BME280;60570;50.848;6.776;2023-05-25T02:58:32;101352.31;;;14.82;55.27
72548;BME280;60570;50.848;6.776;2023-05-25T02:59:33;101351.16;;;14.83;55.74
72548;BME280;60570;50.848;6.776;2023-05-25T03:00:34;101345.91;;;14.82;55.56
72548;BME280;60570;50.848;6.776;2023-05-25T03:01:35;101349.38;;;14.79;55.56
72548;BME280;60570;50.848;6.776;2023-05-25T03:02:37;101351.38;;;14.78;55.62
72548;BME280;60570;50.848;6.776;2023-05-25T03:03:37;101353.00;;;14.79;55.42
72548;BME280;60570;50.848;6.776;2023-05-25T03:04:39;101357.44;;;14.80;55.50
72548;BME280;60570;50.848;6.776;2023-05-25T03:05:41;101357.09;;;14.82;55.44
72548;BME280;60570;50.848;6.776;2023-05-25T03:06:43;101352.16;;;14.79;55.43
72548;BME280;60570;50.848;6.776;2023-05-25T03:07:44;101359.75;;;14.78;55.24
72548;BME280;60570;50.848;6.776;2023-05-25T03:08:47;101363.34;;;14.79;55.56
72548;BME280;60570;50.848;6.776;2023-05-25T03:09:49;101356.97;;;14.78;55.40
72548;BME280;60570;50.848;6.776;2023-05-25T03:10:53;101353.69;;;14.76;55.51
72548;BME280;60570;50.848;6.776;2023-05-25T03:11:54;101355.31;;;14.77;55.61
72548;BME280;60570;50.848;6.776;2023-05-25T03:12:56;101352.88;;;14.76;55.28
72548;BME280;60570;50.848;6.776;2023-05-25T03:13:56;101364.06;;;14.76;55.47
72548;BME280;60570;50.848;6.776;2023-05-25T03:14:58;101362.75;;;14.73;55.37
72548;BME280;60570;50.848;6.776;2023-05-25T03:15:59;101359.97;;;14.73;55.58
72548;BME280;60570;50.848;6.776;2023-05-25T03:17:01;101356.00;;;14.74;55.55
72548;BME280;60570;50.848;6.776;2023-05-25T03:18:01;101360.78;;;14.74;55.74
72548;BME280;60570;50.848;6.776;2023-05-25T03:19:04;101365.91;;;14.72;55.54
72548;BME280;60570;50.848;6.776;2023-05-25T03:20:06;101359.47;;;14.71;55.47
72548;BME280;60570;50.848;6.776;2023-05-25T03:21:09;101363.44;;;14.70;55.64
72548;BME280;60570;50.848;6.776;2023-05-25T03:22:10;101367.41;;;14.69;55.48
72548;BME280;60570;50.848;6.776;2023-05-25T03:23:12;101371.00;;;14.70;55.50
72548;BME280;60570;50.848;6.776;2023-05-25T03:24:12;101361.00;;;14.69;55.33
72548;BME280;60570;50.848;6.776;2023-05-25T03:25:15;101364.59;;;14.69;55.29
72548;BME280;60570;50.848;6.776;2023-05-25T03:26:16;101371.00;;;14.70;55.38
72548;BME280;60570;50.848;6.776;2023-05-25T03:27:18;101368.56;;;14.68;55.44
72548;BME280;60570;50.848;6.776;2023-05-25T03:28:19;101367.75;;;14.68;55.37
72548;BME280;60570;50.848;6.776;2023-05-25T03:29:20;101360.03;;;14.65;55.74
72548;BME280;60570;50.848;6.776;2023-05-25T03:30:22;101370.88;;;14.66;55.36
72548;BME280;60570;50.848;6.776;2023-05-25T03:31:24;101372.03;;;14.65;55.27
72548;BME280;60570;50.848;6.776;2023-05-25T03:32:24;101374.03;;;14.65;55.38
72548;BME280;60570;50.848;6.776;2023-05-25T03:33:26;101369.59;;;14.64;55.55
72548;BME280;60570;50.848;6.776;2023-05-25T03:34:27;101379.16;;;14.63;55.35
72548;BME280;60570;50.848;6.776;2023-05-25T03:35:29;101377.16;;;14.63;55.46
72548;BME280;60570;50.848;6.776;2023-05-25T03:36:30;101375.53;;;14.62;55.49
72548;BME280;60570;50.848;6.776;2023-05-25T03:37:33;101376.66;;;14.61;55.36
72548;BME280;60570;50.848;6.776;2023-05-25T03:38:33;101385.41;;;14.60;55.62
72548;BME280;60570;50.848;6.776;2023-05-25T03:39:35;101388.19;;;14.60;55.46
72548;BME280;60570;50.848;6.776;2023-05-25T03:40:37;101386.22;;;14.60;55.37
72548;BME280;60570;50.848;6.776;2023-05-25T03:41:38;101377.84;;;14.60;55.46
72548;BME280;60570;50.848;6.776;2023-05-25T03:42:39;101389.03;;;14.60;55.61
72548;BME280;60570;50.848;6.776;2023-05-25T03:43:41;101386.56;;;14.59;55.33
72548;BME280;60570;50.848;6.776;2023-05-25T03:44:41;101384.13;;;14.57;55.37
72548;BME280;60570;50.848;6.776;2023-05-25T03:45:43;101383.31;;;14.57;55.63
72548;BME280;60570;50.848;6.776;2023-05-25T03:46:44;101374.44;;;14.55;55.47
72548;BME280;60570;50.848;6.776;2023-05-25T03:47:48;101380.84;;;14.55;56.14
72548;BME280;60570;50.848;6.776;2023-05-25T03:48:49;101377.22;;;14.55;55.49
72548;BME280;60570;50.848;6.776;2023-05-25T03:49:50;101390.38;;;14.54;55.36
72548;BME280;60570;50.848;6.776;2023-05-25T03:50:52;101392.34;;;14.54;55.25
72548;BME280;60570;50.848;6.776;2023-05-25T03:51:54;101388.75;;;14.53;55.85
72548;BME280;60570;50.848;6.776;2023-05-25T03:52:54;101395.16;;;14.54;55.59
72548;BME280;60570;50.848;6.776;2023-05-25T03:53:56;101395.97;;;14.54;55.75
72548;BME280;60570;50.848;6.776;2023-05-25T03:54:57;101404.38;;;14.54;55.44
72548;BME280;60570;50.848;6.776;2023-05-25T03:56:02;101395.50;;;14.52;55.44
72548;BME280;60570;50.848;6.776;2023-05-25T03:57:04;101399.94;;;14.53;55.68
72548;BME280;60570;50.848;6.776;2023-05-25T03:58:05;101399.13;;;14.53;55.67
72548;BME280;60570;50.848;6.776;2023-05-25T03:59:09;101389.09;;;14.52;55.71
72548;BME280;60570;50.848;6.776;2023-05-25T04:00:12;101401.09;;;14.52;55.43
72548;BME280;60570;50.848;6.776;2023-05-25T04:01:12;101402.59;;;14.50;55.78
72548;BME280;60570;50.848;6.776;2023-05-25T04:02:15;101401.78;;;14.49;55.42
72548;BME280;60570;50.848;6.776;2023-05-25T04:03:16;101400.97;;;14.49;55.53
72548;BME280;60570;50.848;6.776;2023-05-25T04:04:19;101402.94;;;14.48;55.55
72548;BME280;60570;50.848;6.776;2023-05-25T04:05:20;101401.63;;;14.46;55.38
72548;BME280;60570;50.848;6.776;2023-05-25T04:06:22;101403.28;;;14.47;55.78
72548;BME280;60570;50.848;6.776;2023-05-25T04:07:24;101403.63;;;14.45;55.65
72548;BME280;60570;50.848;6.776;2023-05-25T04:08:29;101402.78;;;14.45;55.48
72548;BME280;60570;50.848;6.776;2023-05-25T04:09:30;101403.97;;;14.44;55.54
72548;BME280;60570;50.848;6.776;2023-05-25T04:10:31;101411.19;;;14.45;55.37
72548;BME280;60570;50.848;6.776;2023-05-25T04:11:33;101403.97;;;14.44;55.71
72548;BME280;60570;50.848;6.776;2023-05-25T04:12:35;101415.94;;;14.44;55.53
72548;BME280;60570;50.848;6.776;2023-05-25T04:13:36;101414.31;;;14.43;55.38
72548;BME280;60570;50.848;6.776;2023-05-25T04:14:39;101420.25;;;14.42;55.55
72548;BME280;60570;50.848;6.776;2023-05-25T04:15:42;101416.97;;;14.40;55.36
72548;BME280;60570;50.848;6.776;2023-05-25T04:16:42;101421.41;;;14.41;55.35
72548;BME280;60570;50.848;6.776;2023-05-25T04:17:45;101425.38;;;14.40;55.60
72548;BME280;60570;50.848;6.776;2023-05-25T04:18:45;101430.13;;;14.39;55.71
72548;BME280;60570;50.848;6.776;2023-05-25T04:19:47;101433.75;;;14.40;55.75
72548;BME280;60570;50.848;6.776;2023-05-25T04:20:47;101427.69;;;14.38;55.47
72548;BME280;60570;50.848;6.776;2023-05-25T04:21:49;101440.50;;;14.38;55.54
72548;BME280;60570;50.848;6.776;2023-05-25T04:22:50;101439.66;;;14.38;55.65
72548;BME280;60570;50.848;6.776;2023-05-25T04:23:51;101436.88;;;14.38;55.72
72548;BME280;60570;50.848;6.776;2023-05-25T04:24:52;101438.88;;;14.38;55.67
72548;BME280;60570;50.848;6.776;2023-05-25T04:25:54;101440.00;;;14.36;55.86
72548;BME280;60570;50.848;6.776;2023-05-25T04:26:56;101445.13;;;14.34;55.43
72548;BME280;60570;50.848;6.776;2023-05-25T04:27:58;101440.34;;;14.35;55.73
72548;BME280;60570;50.848;6.776;2023-05-25T04:28:59;101443.50;;;14.33;55.54
72548;BME280;60570;50.848;6.776;2023-05-25T04:30:02;101437.41;;;14.31;55.86
72548;BME280;60570;50.848;6.776;2023-05-25T04:31:03;101444.63;;;14.32;55.79
72548;BME280;60570;50.848;6.776;2023-05-25T04:32:06;101446.59;;;14.32;55.67
72548;BME280;60570;50.848;6.776;2023-05-25T04:33:09;101435.78;;;14.30;55.82
72548;BME280;60570;50.848;6.776;2023-05-25T04:34:11;101442.19;;;14.31;55.53
72548;BME280;60570;50.848;6.776;2023-05-25T04:35:13;101445.31;;;14.29;55.60
72548;BME280;60570;50.848;6.776;2023-05-25T04:36:16;101452.06;;;14.28;55.84
72548;BME280;60570;50.848;6.776;2023-05-25T04:37:17;101444.84;;;14.27;55.75
72548;BME280;60570;50.848;6.776;2023-05-25T04:38:18;101447.94;;;14.26;55.59
72548;BME280;60570;50.848;6.776;2023-05-25T04:39:19;101446.78;;;14.27;55.89
72548;BME280;60570;50.848;6.776;2023-05-25T04:40:21;101453.53;;;14.26;55.82
72548;BME280;60570;50.848;6.776;2023-05-25T04:41:21;101448.75;;;14.26;55.68
72548;BME280;60570;50.848;6.776;2023-05-25T04:42:26;101445.16;;;14.26;55.57
72548;BME280;60570;50.848;6.776;2023-05-25T04:43:28;101446.28;;;14.25;55.78
72548;BME280;60570;50.848;6.776;2023-05-25T04:44:30;101433.81;;;14.22;55.88
72548;BME280;60570;50.848;6.776;2023-05-25T04:45:31;101440.22;;;14.23;55.66
72548;BME280;60570;50.848;6.776;2023-05-25T04:46:32;101434.63;;;14.23;55.92
72548;BME280;60570;50.848;6.776;2023-05-25T04:47:36;101440.22;;;14.23;55.96
72548;BME280;60570;50.848;6.776;2023-05-25T04:48:40;101443.00;;;14.23;56.01
72548;BME280;60570;50.848;6.776;2023-05-25T04:49:41;101444.97;;;14.22;55.47
72548;BME280;60570;50.848;6.776;2023-05-25T04:50:43;101443.34;;;14.21;55.62
72548;BME280;60570;50.848;6.776;2023-05-25T04:51:44;101442.53;;;14.21;55.71
72548;BME280;60570;50.848;6.776;2023-05-25T04:52:45;101444.50;;;14.20;56.05
72548;BME280;60570;50.848;6.776;2023-05-25T04:53:46;101444.50;;;14.20;55.88
72548;BME280;60570;50.848;6.776;2023-05-25T04:54:48;101452.09;;;14.20;55.99
72548;BME280;60570;50.848;6.776;2023-05-25T04:55:48;101441.72;;;14.20;55.74
72548;BME280;60570;50.848;6.776;2023-05-25T04:56:50;101436.47;;;14.19;55.94
72548;BME280;60570;50.848;6.776;2023-05-25T04:57:52;101438.91;;;14.20;55.98
72548;BME280;60570;50.848;6.776;2023-05-25T04:58:54;101438.44;;;14.18;55.92
72548;BME280;60570;50.848;6.776;2023-05-25T04:59:55;101440.09;;;14.19;55.78
72548;BME280;60570;50.848;6.776;2023-05-25T05:00:56;101444.84;;;14.19;55.68
72548;BME280;60570;50.848;6.776;2023-05-25T05:01:57;101450.44;;;14.19;55.57
72548;BME280;60570;50.848;6.776;2023-05-25T05:02:59;101435.31;;;14.20;55.84
72548;BME280;60570;50.848;6.776;2023-05-25T05:03:59;101438.44;;;14.18;55.90
72548;BME280;60570;50.848;6.776;2023-05-25T05:05:01;101444.00;;;14.18;55.76
72548;BME280;60570;50.848;6.776;2023-05-25T05:06:03;101442.06;;;14.19;55.86
72548;BME280;60570;50.848;6.776;2023-05-25T05:07:05;101441.22;;;14.18;55.82
72548;BME280;60570;50.848;6.776;2023-05-25T05:08:07;101451.59;;;14.18;55.70
72548;BME280;60570;50.848;6.776;2023-05-25T05:09:09;101449.94;;;14.17;55.66
72548;BME280;60570;50.848;6.776;2023-05-25T05:10:10;101449.94;;;14.17;55.63
72548;BME280;60570;50.848;6.776;2023-05-25T05:11:11;101448.66;;;14.14;55.93
72548;BME280;60570;50.848;6.776;2023-05-25T05:12:12;101452.25;;;14.15;55.85
72548;BME280;60570;50.848;6.776;2023-05-25T05:13:15;101450.63;;;14.14;55.94
72548;BME280;60570;50.848;6.776;2023-05-25T05:14:16;101453.78;;;14.12;56.03
72548;BME280;60570;50.848;6.776;2023-05-25T05:15:18;101452.59;;;14.13;55.93
72548;BME280;60570;50.848;6.776;2023-05-25T05:16:18;101458.19;;;14.13;55.72
72548;BME280;60570;50.848;6.776;2023-05-25T05:17:20;101454.25;;;14.14;55.86
72548;BME280;60570;50.848;6.776;2023-05-25T05:18:22;101451.78;;;14.13;55.77
72548;BME280;60570;50.848;6.776;2023-05-25T05:19:23;101453.78;;;14.12;56.12
72548;BME280;60570;50.848;6.776;2023-05-25T05:20:24;101457.38;;;14.13;55.94
72548;BME280;60570;50.848;6.776;2023-05-25T05:21:27;101452.59;;;14.13;55.92
72548;BME280;60570;50.848;6.776;2023-05-25T05:22:27;101458.19;;;14.13;55.86
72548;BME280;60570;50.848;6.776;2023-05-25T05:23:29;101452.59;;;14.13;55.91
72548;BME280;60570;50.848;6.776;2023-05-25T05:24:30;101454.56;;;14.13;55.98
72548;BME280;60570;50.848;6.776;2023-05-25T05:25:31;101455.41;;;14.13;55.96